createdAt,value
2023-03-22T00:03:17.517Z,515.00
2023-03-22T00:07:17.626Z,512.00
2023-03-22T00:11:17.711Z,510.00
2023-03-22T00:15:17.836Z,510.00
2023-03-22T00:19:17.928Z,506.00
2023-03-22T00:23:17.975Z,504.00
2023-03-22T00:27:18.017Z,505.00
2023-03-22T00:31:18.039Z,507.00
2023-03-22T00:35:20.656Z,504.00
2023-03-22T00:39:18.665Z,504.00
2023-03-22T00:43:18.232Z,506.00
2023-03-22T00:47:18.130Z,506.00
2023-03-22T00:51:18.195Z,501.00
2023-03-22T00:55:18.102Z,503.00
2023-03-22T00:59:18.104Z,505.00
2023-03-22T01:03:18.120Z,501.00
2023-03-22T01:07:18.066Z,504.00
2023-03-22T01:11:18.028Z,505.00
2023-03-22T01:15:17.994Z,503.00
2023-03-22T01:19:18.082Z,506.00
2023-03-22T01:23:18.030Z,506.00
2023-03-22T01:27:17.956Z,502.00
2023-03-22T01:31:18.043Z,501.00
2023-03-22T01:35:17.895Z,502.00
2023-03-22T01:39:17.871Z,505.00
2023-03-22T01:43:17.869Z,505.00
2023-03-22T01:47:17.833Z,506.00
2023-03-22T01:51:17.857Z,505.00
2023-03-22T01:55:17.860Z,501.00
2023-03-22T01:59:17.784Z,502.00
2023-03-22T02:03:17.895Z,505.00
2023-03-22T02:07:20.667Z,502.00
2023-03-22T02:11:18.636Z,504.00
2023-03-22T02:15:17.724Z,504.00
2023-03-22T02:19:17.752Z,509.00
2023-03-22T02:23:17.739Z,504.00
2023-03-22T02:27:17.636Z,503.00
2023-03-22T02:31:17.639Z,505.00
2023-03-22T02:35:20.319Z,502.00
2023-03-22T02:39:17.509Z,501.00
2023-03-22T02:43:17.482Z,503.00
2023-03-22T02:47:17.400Z,503.00
2023-03-22T02:51:17.371Z,502.00
2023-03-22T02:55:17.344Z,505.00
2023-03-22T02:59:17.352Z,504.00
2023-03-22T03:03:17.265Z,501.00
2023-03-22T03:07:17.254Z,507.00
2023-03-22T03:11:17.235Z,503.00
2023-03-22T03:15:17.161Z,504.00
2023-03-22T03:19:17.125Z,507.00
2023-03-22T03:23:17.121Z,505.00
2023-03-22T03:27:17.189Z,500.00
2023-03-22T03:31:17.713Z,503.00
2023-03-22T03:35:17.144Z,504.00
2023-03-22T03:39:16.922Z,502.00
2023-03-22T03:43:16.898Z,502.00
2023-03-22T03:47:16.861Z,504.00
2023-03-22T03:51:16.844Z,504.00
2023-03-22T03:55:17.212Z,503.00
2023-03-22T03:59:16.753Z,505.00
2023-03-22T04:03:16.819Z,510.00
2023-03-22T04:07:16.698Z,504.00
2023-03-22T04:11:16.708Z,502.00
2023-03-22T04:15:16.648Z,501.00
2023-03-22T04:19:16.614Z,506.00
2023-03-22T04:23:16.518Z,500.00
2023-03-22T04:27:16.498Z,504.00
2023-03-22T04:31:16.541Z,503.00
2023-03-22T04:35:16.510Z,504.00
2023-03-22T04:39:16.415Z,507.00
2023-03-22T04:43:16.385Z,503.00
2023-03-22T04:47:16.333Z,506.00
2023-03-22T04:51:16.329Z,503.00
2023-03-22T04:55:16.292Z,500.00
2023-03-22T04:59:16.234Z,504.00
2023-03-22T05:03:16.204Z,506.00
2023-03-22T05:07:16.237Z,504.00
2023-03-22T05:11:16.109Z,502.00
2023-03-22T05:15:16.779Z,503.00
2023-03-22T05:19:16.036Z,502.00
2023-03-22T05:23:16.018Z,504.00
2023-03-22T05:27:16.003Z,505.00
2023-03-22T05:31:16.280Z,513.00
2023-03-22T05:35:15.915Z,515.00
2023-03-22T05:39:16.193Z,518.00
2023-03-22T05:43:16.469Z,531.00
2023-03-22T05:47:16.541Z,536.00
2023-03-22T05:51:16.659Z,528.00
2023-03-22T05:55:16.711Z,530.00
2023-03-22T05:59:16.788Z,531.00
2023-03-22T06:03:17.086Z,525.00
2023-03-22T06:07:16.782Z,525.00
2023-03-22T06:11:16.771Z,519.00
2023-03-22T06:15:16.892Z,520.00
2023-03-22T06:19:18.306Z,521.00
2023-03-22T06:23:16.844Z,522.00
2023-03-22T06:27:17.329Z,520.00
2023-03-22T06:31:18.484Z,527.00
2023-03-22T06:35:16.958Z,517.00
2023-03-22T06:39:17.407Z,508.00
2023-03-22T06:43:30.810Z,519.00
2023-03-22T06:47:17.183Z,528.00
2023-03-22T06:51:18.174Z,555.00
2023-03-22T06:55:18.757Z,564.00
2023-03-22T07:03:35.982Z,500.00
2023-03-22T07:07:35.559Z,507.00
2023-03-22T07:15:54.352Z,500.00
2023-03-22T07:19:54.505Z,507.00
2023-03-22T07:23:54.696Z,521.00
2023-03-22T07:27:54.665Z,511.00
2023-03-22T07:31:54.617Z,507.00
2023-03-22T07:35:55.083Z,502.00
2023-03-22T07:39:56.833Z,504.00
2023-03-22T07:44:04.827Z,512.00
2023-03-22T07:47:55.849Z,506.00
2023-03-22T07:51:54.606Z,502.00
2023-03-22T07:55:54.628Z,524.00
2023-03-22T07:59:55.044Z,514.00
2023-03-22T08:03:55.124Z,523.00
2023-03-22T08:07:54.891Z,503.00
2023-03-22T08:11:54.754Z,510.00
2023-03-22T08:15:55.087Z,507.00
2023-03-22T08:19:54.833Z,500.00
2023-03-22T08:23:54.789Z,523.00
2023-03-22T08:27:54.952Z,512.00
2023-03-22T08:31:55.859Z,507.00
2023-03-22T08:35:54.838Z,513.00
2023-03-22T08:39:54.766Z,529.00
2023-03-22T08:43:54.959Z,525.00
2023-03-22T08:47:55.257Z,500.00
2023-03-22T08:51:55.207Z,512.00
2023-03-22T08:55:55.290Z,486.00
2023-03-22T08:59:55.491Z,500.00
2023-03-22T09:03:55.326Z,509.00
2023-03-22T09:08:00.590Z,509.00
2023-03-22T09:11:56.314Z,512.00
2023-03-22T09:15:55.366Z,495.00
2023-03-22T09:20:09.397Z,518.00
2023-03-22T09:23:56.489Z,533.00
2023-03-22T09:27:59.954Z,524.00
2023-03-22T09:31:55.750Z,539.00
2023-03-22T09:35:57.101Z,514.00
2023-03-22T09:39:57.048Z,546.00
2023-03-22T09:48:14.150Z,500.00
2023-03-22T09:52:13.992Z,522.00
2023-03-22T09:56:14.595Z,560.00
2023-03-22T10:00:13.699Z,584.00
2023-03-22T10:04:13.857Z,625.00
2023-03-22T10:08:13.615Z,638.00
2023-03-22T10:12:14.801Z,639.00
2023-03-22T10:16:13.837Z,650.00
2023-03-22T10:20:14.228Z,715.00
2023-03-22T10:24:14.149Z,768.00
2023-03-22T10:28:14.369Z,832.00
2023-03-22T10:32:14.966Z,860.00
2023-03-22T10:36:14.539Z,918.00
2023-03-22T10:40:14.779Z,619.00
2023-03-22T10:44:15.620Z,530.00
2023-03-22T10:48:16.268Z,524.00
2023-03-22T10:52:15.475Z,565.00
2023-03-22T10:56:14.822Z,524.00
2023-03-22T11:00:15.186Z,532.00
2023-03-22T11:04:14.769Z,567.00
2023-03-22T11:08:14.638Z,532.00
2023-03-22T11:12:14.598Z,520.00
2023-03-22T11:16:14.782Z,574.00
2023-03-22T11:20:14.608Z,533.00
2023-03-22T11:24:14.873Z,558.00
2023-03-22T11:28:14.542Z,559.00
2023-03-22T11:32:14.451Z,584.00
2023-03-22T11:36:14.464Z,588.00
2023-03-22T11:40:14.591Z,552.00
2023-03-22T11:44:14.726Z,597.00
2023-03-22T11:48:15.034Z,618.00
2023-03-22T11:52:14.984Z,544.00
2023-03-22T11:56:15.217Z,537.00
2023-03-22T12:00:15.233Z,542.00
2023-03-22T12:04:15.168Z,458.00
2023-03-22T12:08:15.102Z,536.00
2023-03-22T12:12:15.150Z,613.00
2023-03-22T12:16:15.212Z,541.00
2023-03-22T12:20:15.026Z,1082.00
2023-03-22T12:24:14.924Z,1346.00
2023-03-22T12:28:14.886Z,1512.00
2023-03-22T12:32:14.862Z,1695.00
2023-03-22T12:36:14.909Z,1672.00
2023-03-22T12:40:14.850Z,1751.00
2023-03-22T12:44:15.058Z,1783.00
2023-03-22T12:48:15.232Z,1864.00
2023-03-22T12:52:15.337Z,1884.00
2023-03-22T12:56:15.594Z,1906.00
2023-03-22T13:00:15.804Z,1945.00
2023-03-22T13:04:16.038Z,1996.00
2023-03-22T13:08:16.197Z,1972.00
2023-03-22T13:12:16.393Z,1993.00
2023-03-22T13:16:16.597Z,1980.00
2023-03-22T13:20:16.780Z,1999.00
2023-03-22T13:24:16.959Z,2008.00
2023-03-22T13:28:17.332Z,2003.00
2023-03-22T13:32:17.403Z,2008.00
2023-03-22T13:36:17.505Z,2006.00
2023-03-22T13:40:17.665Z,1986.00
2023-03-22T13:44:17.893Z,2013.00
2023-03-22T13:48:18.698Z,2022.00
2023-03-22T13:52:18.238Z,2000.00
2023-03-22T13:56:18.440Z,2002.00
2023-03-22T14:00:20.417Z,1974.00
2023-03-22T14:04:18.769Z,1963.00
2023-03-22T14:08:18.969Z,1967.00
2023-03-22T14:12:19.228Z,1936.00
2023-03-22T14:16:19.345Z,1924.00
2023-03-22T14:20:19.535Z,1908.00
2023-03-22T14:49:20.700Z,500.00
2023-03-22T14:53:20.918Z,500.00
2023-03-22T14:57:28.374Z,511.00
2023-03-22T15:01:21.895Z,500.00
2023-03-22T15:05:21.023Z,504.00
2023-03-22T15:09:20.817Z,506.00
2023-03-22T15:13:21.436Z,503.00
2023-03-22T15:17:21.165Z,512.00
2023-03-22T15:21:21.458Z,503.00
2023-03-22T15:25:21.494Z,503.00
2023-03-22T15:29:21.740Z,514.00
2023-03-22T15:33:21.834Z,516.00
2023-03-22T15:37:22.014Z,518.00
2023-03-22T15:41:22.224Z,532.00
2023-03-22T15:45:23.081Z,572.00
2023-03-22T15:49:22.543Z,584.00
2023-03-22T15:53:22.745Z,591.00
2023-03-22T15:57:23.024Z,587.00
2023-03-22T16:01:23.160Z,590.00
2023-03-22T16:05:23.309Z,590.00
2023-03-22T16:09:23.490Z,591.00
2023-03-22T16:13:23.658Z,596.00
2023-03-22T16:17:23.911Z,587.00
2023-03-22T16:21:24.021Z,594.00
2023-03-22T16:25:24.246Z,591.00
2023-03-22T16:29:24.989Z,597.00
2023-03-22T16:33:24.686Z,594.00
2023-03-22T16:37:24.897Z,593.00
2023-03-22T16:41:25.130Z,590.00
2023-03-22T16:45:25.065Z,583.00
2023-03-22T16:49:25.021Z,590.00
2023-03-22T16:53:25.092Z,585.00
2023-03-22T16:57:24.995Z,582.00
2023-03-22T17:01:25.092Z,586.00
2023-03-22T17:05:25.019Z,583.00
2023-03-22T17:09:25.055Z,586.00
2023-03-22T17:13:25.032Z,576.00
2023-03-22T17:17:26.004Z,573.00
2023-03-22T17:21:24.900Z,571.00
2023-03-22T17:25:24.844Z,567.00
2023-03-22T17:29:24.973Z,578.00
2023-03-22T17:33:24.896Z,565.00
2023-03-22T17:37:25.131Z,568.00
2023-03-22T17:41:24.973Z,578.00
2023-03-22T17:45:27.442Z,566.00
2023-03-22T17:49:25.239Z,575.00
2023-03-22T17:54:04.934Z,565.00
2023-03-22T18:01:26.263Z,562.00
2023-03-22T18:05:31.943Z,566.00
2023-03-22T18:09:26.119Z,554.00
2023-03-22T18:13:25.146Z,557.00
2023-03-22T18:17:25.099Z,543.00
2023-03-22T18:21:25.072Z,558.00
2023-03-22T18:25:26.976Z,549.00
2023-03-22T18:29:25.976Z,551.00
2023-03-22T18:33:24.971Z,539.00
2023-03-22T18:41:40.886Z,523.00
2023-03-22T18:45:32.489Z,534.00
2023-03-22T18:49:25.846Z,529.00
2023-03-22T18:53:24.787Z,545.00
2023-03-22T18:57:25.915Z,514.00
2023-03-22T19:01:25.707Z,525.00
2023-03-22T19:05:24.665Z,519.00
2023-03-22T19:09:24.613Z,515.00
2023-03-22T19:13:24.589Z,511.00
2023-03-22T19:17:24.703Z,517.00
2023-03-22T19:21:32.349Z,519.00
2023-03-22T19:25:25.486Z,511.00
2023-03-22T19:29:24.504Z,512.00
2023-03-22T19:33:34.747Z,500.00
2023-03-22T19:37:25.412Z,502.00
2023-03-22T19:45:25.356Z,505.00
2023-03-22T19:49:24.303Z,506.00
2023-03-22T19:54:12.109Z,514.00
2023-03-22T19:57:25.214Z,511.00
2023-03-22T20:01:24.205Z,512.00
2023-03-22T20:05:24.180Z,515.00
2023-03-22T20:09:24.109Z,509.00
2023-03-22T20:13:24.080Z,509.00
2023-03-22T20:17:26.388Z,507.00
2023-03-22T20:21:24.229Z,512.00
2023-03-22T20:25:24.582Z,518.00
2023-03-22T20:29:24.430Z,525.00
2023-03-22T20:33:24.456Z,529.00
2023-03-22T20:37:24.529Z,531.00
2023-03-22T20:41:24.588Z,532.00
2023-03-22T20:45:24.682Z,534.00
2023-03-22T20:49:24.701Z,537.00
2023-03-22T20:53:24.769Z,538.00
2023-03-22T20:57:24.844Z,538.00
2023-03-22T21:01:24.920Z,538.00
2023-03-22T21:05:24.979Z,541.00
2023-03-22T21:09:25.576Z,544.00
2023-03-22T21:13:25.176Z,541.00
2023-03-22T21:17:25.261Z,535.00
2023-03-22T21:21:25.345Z,543.00
2023-03-22T21:25:25.415Z,544.00
2023-03-22T21:29:25.547Z,540.00
2023-03-22T21:33:25.620Z,542.00
2023-03-22T21:37:25.695Z,543.00
2023-03-22T21:41:25.811Z,534.00
2023-03-22T21:45:25.882Z,541.00
2023-03-22T21:49:26.018Z,541.00
2023-03-22T21:53:26.095Z,537.00
2023-03-22T21:57:26.272Z,543.00
2023-03-22T22:01:26.623Z,537.00
2023-03-22T22:05:26.445Z,538.00
2023-03-22T22:09:26.634Z,537.00
2023-03-22T22:13:27.616Z,534.00
2023-03-22T22:17:26.751Z,539.00
2023-03-22T22:21:26.823Z,534.00
2023-03-22T22:25:27.008Z,537.00
2023-03-22T22:29:27.111Z,532.00
2023-03-22T22:33:27.251Z,532.00
2023-03-22T22:37:27.324Z,531.00
2023-03-22T22:41:27.431Z,535.00
2023-03-22T22:45:27.574Z,532.00
2023-03-22T22:49:27.657Z,531.00
2023-03-22T22:53:27.732Z,531.00
2023-03-22T22:57:27.854Z,528.00
2023-03-22T23:01:27.977Z,532.00
2023-03-22T23:05:28.085Z,530.00
2023-03-22T23:09:28.231Z,530.00
2023-03-22T23:13:28.305Z,529.00
2023-03-22T23:17:28.669Z,528.00
2023-03-22T23:21:28.549Z,528.00
2023-03-22T23:25:28.692Z,527.00
2023-03-22T23:29:28.918Z,528.00
2023-03-22T23:33:28.909Z,527.00
2023-03-22T23:37:29.069Z,525.00
2023-03-22T23:41:29.606Z,528.00
2023-03-22T23:45:29.270Z,524.00
2023-03-22T23:49:29.380Z,524.00
2023-03-22T23:53:29.570Z,526.00
2023-03-22T23:57:29.724Z,521.00
